Time;durP1;ratioP1;P1;durP2;ratioP2;P2;SDS_P1;SDS_P2;PMS_P1;PMS_P2;Temp;Humidity;BMP_temperature;BMP_pressure;BME280_temperature;BME280_humidity;BME280_pressure;Samples;Min_cycle;Max_cycle;Signal;HPM_P1;HPM_P2
2023/07/11 00:00:18;;;;;;;12.50;7.60;;;;;;;;;;5053871;28;20468;-51
2023/07/11 00:02:45;;;;;;;11.60;7.07;;;;;;;;;;5054107;28;20535;-49
2023/07/11 00:05:15;;;;;;;13.03;7.30;;;;;;;;;;5054089;28;20401;-51
2023/07/11 00:07:41;;;;;;;10.67;6.87;;;;;;;;;;5053801;28;20464;-49
2023/07/11 00:10:07;;;;;;;12.87;7.80;;;;;;;;;;5053755;28;20414;-48
2023/07/11 00:12:33;;;;;;;9.23;6.63;;;;;;;;;;5053893;28;20420;-49
2023/07/11 00:14:59;;;;;;;10.83;7.03;;;;;;;;;;5053850;28;20412;-48
2023/07/11 00:17:25;;;;;;;14.70;6.60;;;;;;;;;;5053736;28;20436;-48
2023/07/11 00:19:51;;;;;;;7.40;5.83;;;;;;;;;;5053492;28;20544;-49
2023/07/11 00:22:17;;;;;;;5.73;5.20;;;;;;;;;;5053558;28;20377;-49
2023/07/11 00:24:43;;;;;;;8.47;6.27;;;;;;;;;;5053608;28;20405;-50
2023/07/11 00:27:12;;;;;;;9.83;5.33;;;;;;;;;;5053546;28;20415;-49
2023/07/11 00:29:38;;;;;;;7.57;5.40;;;;;;;;;;5049651;28;20457;-49
2023/07/11 00:32:05;;;;;;;7.20;5.83;;;;;;;;;;5053619;28;20385;-49
2023/07/11 00:34:31;;;;;;;5.50;4.97;;;;;;;;;;5053418;28;20510;-49
2023/07/11 00:36:57;;;;;;;6.07;5.37;;;;;;;;;;5053455;28;20939;-49
2023/07/11 00:39:23;;;;;;;11.90;5.87;;;;;;;;;;5053201;28;20537;-49
2023/07/11 00:41:49;;;;;;;7.17;5.80;;;;;;;;;;5053036;28;20409;-48
2023/07/11 00:44:16;;;;;;;8.03;5.10;;;;;;;;;;5053279;28;20376;-49
2023/07/11 00:46:42;;;;;;;6.83;6.13;;;;;;;;;;5053386;28;20422;-48
2023/07/11 00:49:09;;;;;;;6.67;5.80;;;;;;;;;;5053116;28;20780;-48
2023/07/11 00:51:41;;;;;;;9.67;5.73;;;;;;;;;;5053040;28;20411;-48
2023/07/11 00:54:08;;;;;;;6.93;5.80;;;;;;;;;;5053063;28;20877;-50
2023/07/11 00:56:37;;;;;;;5.50;5.00;;;;;;;;;;5053091;28;20395;-49
2023/07/11 00:59:03;;;;;;;9.83;5.33;;;;;;;;;;5053022;28;20468;-48
2023/07/11 01:01:30;;;;;;;10.73;5.27;;;;;;;;;;5052343;28;20454;-49
2023/07/11 01:03:56;;;;;;;9.30;6.10;;;;;;;;;;5052202;28;20384;-51
2023/07/11 01:06:24;;;;;;;6.50;5.90;;;;;;;;;;5052477;28;20458;-51
2023/07/11 01:08:51;;;;;;;8.80;6.50;;;;;;;;;;5051428;28;20834;-49
2023/07/11 01:11:18;;;;;;;9.00;5.70;;;;;;;;;;5052410;28;20425;-51
2023/07/11 01:13:44;;;;;;;12.03;5.47;;;;;;;;;;5052779;28;20415;-49
2023/07/11 01:16:10;;;;;;;10.37;6.50;;;;;;;;;;5053135;28;20418;-50
2023/07/11 01:18:36;;;;;;;9.60;5.80;;;;;;;;;;5052385;28;21023;-49
2023/07/11 01:21:04;;;;;;;9.27;5.60;;;;;;;;;;5052570;28;20404;-49
2023/07/11 01:23:31;;;;;;;6.83;5.13;;;;;;;;;;5052503;28;20418;-50
2023/07/11 01:26:04;;;;;;;7.50;5.47;;;;;;;;;;5052609;28;20437;-49
2023/07/11 01:28:30;;;;;;;9.77;6.13;;;;;;;;;;5052296;28;20417;-52
2023/07/11 01:30:57;;;;;;;8.50;5.20;;;;;;;;;;5052051;28;20411;-49
2023/07/11 01:33:25;;;;;;;6.90;5.40;;;;;;;;;;5052387;28;20386;-49
2023/07/11 01:35:52;;;;;;;12.77;6.23;;;;;;;;;;5052415;28;20420;-52
2023/07/11 01:38:19;;;;;;;20.70;5.83;;;;;;;;;;5052062;28;20476;-49
2023/07/11 01:40:45;;;;;;;7.03;5.00;;;;;;;;;;5052201;28;20669;-50
2023/07/11 01:43:11;;;;;;;14.33;4.70;;;;;;;;;;5052274;28;20414;-50
2023/07/11 01:45:37;;;;;;;8.77;5.53;;;;;;;;;;5051990;28;20383;-49
2023/07/11 01:48:03;;;;;;;7.47;5.60;;;;;;;;;;5052109;28;20432;-49
2023/07/11 01:50:29;;;;;;;11.00;5.93;;;;;;;;;;5051765;28;20419;-49
2023/07/11 01:52:55;;;;;;;14.23;6.30;;;;;;;;;;5051591;28;20415;-50
2023/07/11 01:55:21;;;;;;;12.87;5.73;;;;;;;;;;5051832;28;20471;-51
2023/07/11 01:57:46;;;;;;;10.33;5.70;;;;;;;;;;5051922;28;20523;-53
2023/07/11 02:00:13;;;;;;;10.27;5.83;;;;;;;;;;5051505;28;20497;-51
2023/07/11 02:02:39;;;;;;;6.63;5.10;;;;;;;;;;5051872;28;20408;-50
2023/07/11 02:05:06;;;;;;;13.00;5.60;;;;;;;;;;5051706;28;20450;-50
2023/07/11 02:07:31;;;;;;;10.53;5.23;;;;;;;;;;5051604;28;20451;-51
2023/07/11 02:09:57;;;;;;;11.80;6.50;;;;;;;;;;5051535;28;20390;-48
2023/07/11 02:12:23;;;;;;;7.80;6.20;;;;;;;;;;5051626;28;20427;-48
2023/07/11 02:14:49;;;;;;;6.20;5.50;;;;;;;;;;5051616;28;20942;-49
2023/07/11 02:17:16;;;;;;;9.23;6.37;;;;;;;;;;5051519;28;20408;-49
2023/07/11 02:19:43;;;;;;;7.37;6.00;;;;;;;;;;5051485;28;20459;-49
2023/07/11 02:22:09;;;;;;;10.87;5.77;;;;;;;;;;5051498;28;20373;-49
2023/07/11 02:24:35;;;;;;;10.53;5.83;;;;;;;;;;5051458;28;20380;-51
2023/07/11 02:27:01;;;;;;;8.53;5.47;;;;;;;;;;5051484;28;20472;-52
2023/07/11 02:29:27;;;;;;;9.47;5.73;;;;;;;;;;5051248;28;20446;-48
2023/07/11 02:31:53;;;;;;;10.90;7.83;;;;;;;;;;5051288;28;20396;-49
2023/07/11 02:34:19;;;;;;;9.80;6.63;;;;;;;;;;5051313;28;20399;-49
2023/07/11 02:36:45;;;;;;;7.10;6.40;;;;;;;;;;5051394;28;20906;-48
2023/07/11 02:39:12;;;;;;;7.27;6.53;;;;;;;;;;5051329;28;20451;-50
2023/07/11 02:41:37;;;;;;;6.67;5.70;;;;;;;;;;5050082;28;20430;-49
2023/07/11 02:44:03;;;;;;;6.80;6.00;;;;;;;;;;5051236;28;20509;-48
2023/07/11 02:46:31;;;;;;;7.20;5.50;;;;;;;;;;5051187;28;20404;-49
2023/07/11 02:48:57;;;;;;;8.97;5.00;;;;;;;;;;5051106;28;20451;-51
2023/07/11 02:51:24;;;;;;;10.27;5.13;;;;;;;;;;5050816;28;20882;-49
2023/07/11 02:53:50;;;;;;;6.77;5.07;;;;;;;;;;5051275;28;20407;-50
2023/07/11 02:56:16;;;;;;;8.17;4.60;;;;;;;;;;5051036;28;20901;-52
2023/07/11 02:58:42;;;;;;;4.77;4.37;;;;;;;;;;5051159;28;20578;-54
2023/07/11 03:01:08;;;;;;;5.73;4.30;;;;;;;;;;5051067;28;20970;-49
2023/07/11 03:03:34;;;;;;;4.40;4.00;;;;;;;;;;5051178;28;20404;-49
2023/07/11 03:06:00;;;;;;;8.67;4.40;;;;;;;;;;5052824;28;20904;-49
2023/07/11 03:08:26;;;;;;;5.17;4.30;;;;;;;;;;5054983;28;20435;-49
2023/07/11 03:10:52;;;;;;;6.73;5.13;;;;;;;;;;5054817;28;20381;-49
2023/07/11 03:13:19;;;;;;;4.70;4.30;;;;;;;;;;5055109;28;20776;-49
2023/07/11 03:15:45;;;;;;;14.97;5.67;;;;;;;;;;5055083;28;20414;-53
2023/07/11 03:18:13;;;;;;;6.77;5.10;;;;;;;;;;5054906;28;20429;-48
2023/07/11 03:20:39;;;;;;;5.70;5.10;;;;;;;;;;5046586;28;20398;-48
2023/07/11 03:23:05;;;;;;;6.70;4.60;;;;;;;;;;5054916;28;20411;-48
2023/07/11 03:25:32;;;;;;;6.27;5.07;;;;;;;;;;5054696;28;20385;-49
2023/07/11 03:27:58;;;;;;;4.80;4.40;;;;;;;;;;5054778;28;20409;-52
2023/07/11 03:30:25;;;;;;;7.37;4.40;;;;;;;;;;5054563;28;20443;-50
2023/07/11 03:32:52;;;;;;;7.03;4.57;;;;;;;;;;5054760;28;20406;-49
2023/07/11 03:35:18;;;;;;;5.27;4.57;;;;;;;;;;5049419;28;20495;-49
2023/07/11 03:37:44;;;;;;;5.17;4.30;;;;;;;;;;5054471;28;20530;-49
2023/07/11 03:40:10;;;;;;;7.47;4.40;;;;;;;;;;5054075;28;20528;-49
2023/07/11 03:42:36;;;;;;;7.43;4.20;;;;;;;;;;5054467;28;20403;-49
2023/07/11 03:45:02;;;;;;;4.57;4.13;;;;;;;;;;5054667;28;20855;-49
2023/07/11 03:47:28;;;;;;;7.37;4.27;;;;;;;;;;5054589;28;20492;-52
2023/07/11 03:49:55;;;;;;;5.70;4.83;;;;;;;;;;5054155;28;20383;-48
2023/07/11 03:52:21;;;;;;;6.70;4.27;;;;;;;;;;5054212;28;20461;-52
2023/07/11 03:54:47;;;;;;;6.47;4.60;;;;;;;;;;5058155;28;20410;-48
2023/07/11 03:57:14;;;;;;;6.10;4.07;;;;;;;;;;5054293;28;20930;-52
2023/07/11 03:59:40;;;;;;;4.90;4.47;;;;;;;;;;5053979;28;20481;-49
2023/07/11 04:02:06;;;;;;;9.03;4.27;;;;;;;;;;5054354;28;20842;-49
2023/07/11 04:04:33;;;;;;;5.90;4.10;;;;;;;;;;5054156;28;20772;-50
2023/07/11 04:06:58;;;;;;;5.10;3.90;;;;;;;;;;5054522;28;20767;-54
2023/07/11 04:09:25;;;;;;;5.23;4.63;;;;;;;;;;5053727;28;20451;-54
2023/07/11 04:11:51;;;;;;;8.80;5.23;;;;;;;;;;5053811;28;20866;-53
2023/07/11 04:14:18;;;;;;;6.17;3.83;;;;;;;;;;5053768;28;20416;-54
2023/07/11 04:16:44;;;;;;;4.30;3.80;;;;;;;;;;5053371;28;20415;-54
2023/07/11 04:19:10;;;;;;;6.13;4.27;;;;;;;;;;5053688;28;20559;-55
2023/07/11 04:21:36;;;;;;;4.33;4.03;;;;;;;;;;5053541;28;20402;-54
2023/07/11 04:24:02;;;;;;;5.93;4.00;;;;;;;;;;5053659;28;20901;-53
2023/07/11 04:26:28;;;;;;;5.33;4.07;;;;;;;;;;5053617;28;20418;-53
2023/07/11 04:28:54;;;;;;;5.53;4.30;;;;;;;;;;5053529;28;20409;-54
2023/07/11 04:31:21;;;;;;;5.27;4.30;;;;;;;;;;5060156;28;20438;-51
2023/07/11 04:33:46;;;;;;;4.83;4.30;;;;;;;;;;5053630;28;20386;-54
2023/07/11 04:36:14;;;;;;;6.07;4.10;;;;;;;;;;5053287;28;20469;-52
2023/07/11 04:38:40;;;;;;;4.60;4.20;;;;;;;;;;5053418;28;20459;-54
2023/07/11 04:41:07;;;;;;;5.73;4.40;;;;;;;;;;5053299;28;20427;-54
2023/07/11 04:43:36;;;;;;;8.27;3.90;;;;;;;;;;5053399;28;20423;-54
2023/07/11 04:46:04;;;;;;;5.90;3.97;;;;;;;;;;5053343;28;20904;-54
2023/07/11 04:48:31;;;;;;;7.60;4.53;;;;;;;;;;5053036;28;20422;-54
2023/07/11 04:50:58;;;;;;;7.47;3.73;;;;;;;;;;5052952;28;20411;-54
2023/07/11 04:53:25;;;;;;;4.53;4.10;;;;;;;;;;5053167;28;20419;-48
2023/07/11 04:55:57;;;;;;;5.77;3.77;;;;;;;;;;5053136;28;20412;-54
2023/07/11 04:58:24;;;;;;;5.63;3.43;;;;;;;;;;5052875;28;20426;-54
2023/07/11 05:00:50;;;;;;;5.10;3.90;;;;;;;;;;5053052;28;20477;-54
2023/07/11 05:03:16;;;;;;;5.10;4.70;;;;;;;;;;5052879;28;20404;-53
2023/07/11 05:05:42;;;;;;;5.07;3.67;;;;;;;;;;5052831;28;20845;-54
2023/07/11 05:08:09;;;;;;;5.53;3.80;;;;;;;;;;5052733;28;20445;-54
2023/07/11 05:10:35;;;;;;;5.77;4.43;;;;;;;;;;5052585;28;20413;-54
2023/07/11 05:13:01;;;;;;;5.10;3.83;;;;;;;;;;5052856;28;20939;-54
2023/07/11 05:15:27;;;;;;;8.53;4.03;;;;;;;;;;5052684;28;20390;-54
2023/07/11 05:17:53;;;;;;;5.00;3.80;;;;;;;;;;5052605;28;20408;-54
2023/07/11 05:20:20;;;;;;;3.97;3.57;;;;;;;;;;5045067;28;20545;-53
2023/07/11 05:22:46;;;;;;;4.00;3.57;;;;;;;;;;5052775;28;20423;-53
2023/07/11 05:25:12;;;;;;;4.63;3.80;;;;;;;;;;5052566;28;20388;-54
2023/07/11 05:27:38;;;;;;;5.70;4.23;;;;;;;;;;5052089;28;20435;-54
2023/07/11 05:30:05;;;;;;;4.80;3.90;;;;;;;;;;5051951;28;20425;-54
2023/07/11 05:32:31;;;;;;;6.50;3.73;;;;;;;;;;5052113;28;20421;-52
2023/07/11 05:34:57;;;;;;;7.27;3.70;;;;;;;;;;5052297;28;20927;-52
2023/07/11 05:37:24;;;;;;;9.70;4.07;;;;;;;;;;5051851;28;20784;-53
2023/07/11 05:39:50;;;;;;;3.87;3.57;;;;;;;;;;5051525;28;21034;-54
2023/07/11 05:42:16;;;;;;;4.07;3.77;;;;;;;;;;5051675;28;20412;-54
2023/07/11 05:44:45;;;;;;;9.53;4.27;;;;;;;;;;5051652;28;20412;-54
2023/07/11 05:47:11;;;;;;;3.80;3.53;;;;;;;;;;5051637;28;20440;-53
2023/07/11 05:49:39;;;;;;;4.13;3.77;;;;;;;;;;5051196;28;20421;-52
2023/07/11 05:52:05;;;;;;;3.53;3.20;;;;;;;;;;5053536;28;20906;-54
2023/07/11 05:54:31;;;;;;;3.67;3.40;;;;;;;;;;5051356;28;20431;-54
2023/07/11 05:56:57;;;;;;;6.23;4.20;;;;;;;;;;5051283;28;20436;-54
2023/07/11 05:59:23;;;;;;;3.67;3.37;;;;;;;;;;5051443;28;20468;-54
2023/07/11 06:01:49;;;;;;;3.93;3.63;;;;;;;;;;5051380;28;20417;-54
2023/07/11 06:04:16;;;;;;;3.90;3.60;;;;;;;;;;5051380;28;20387;-54
2023/07/11 06:06:43;;;;;;;3.60;3.30;;;;;;;;;;5051609;28;20421;-53
2023/07/11 06:09:13;;;;;;;4.73;3.77;;;;;;;;;;5051638;28;20520;-54
2023/07/11 06:11:39;;;;;;;4.00;3.50;;;;;;;;;;5043606;28;20405;-54
2023/07/11 06:14:05;;;;;;;4.60;3.33;;;;;;;;;;5051588;28;20421;-55
2023/07/11 06:16:31;;;;;;;4.33;3.27;;;;;;;;;;5051563;28;20484;-53
2023/07/11 06:18:58;;;;;;;3.53;3.23;;;;;;;;;;5051602;28;20564;-53
2023/07/11 06:21:24;;;;;;;4.23;3.20;;;;;;;;;;5051490;28;20417;-55
2023/07/11 06:23:50;;;;;;;4.07;3.33;;;;;;;;;;5051549;28;20446;-55
2023/07/11 06:26:16;;;;;;;3.47;3.17;;;;;;;;;;5051515;28;20452;-53
2023/07/11 06:28:43;;;;;;;3.20;2.97;;;;;;;;;;5051347;28;20429;-55
2023/07/11 06:31:10;;;;;;;9.13;3.40;;;;;;;;;;5051073;28;20420;-55
2023/07/11 06:33:37;;;;;;;4.03;3.13;;;;;;;;;;5051285;28;20906;-53
2023/07/11 06:36:04;;;;;;;3.80;3.23;;;;;;;;;;5051706;28;20440;-54
2023/07/11 06:38:30;;;;;;;3.27;3.03;;;;;;;;;;5051261;28;20429;-54
2023/07/11 06:40:57;;;;;;;3.33;3.07;;;;;;;;;;5051013;28;20420;-55
2023/07/11 06:43:25;;;;;;;3.67;2.97;;;;;;;;;;5051297;28;20964;-55
2023/07/11 06:45:55;;;;;;;3.10;2.80;;;;;;;;;;5051138;28;20420;-55
2023/07/11 06:48:22;;;;;;;4.33;3.13;;;;;;;;;;5051141;28;20437;-54
2023/07/11 06:50:57;;;;;;;3.30;3.00;;;;;;;;;;5051258;28;20467;-55
2023/07/11 06:53:24;;;;;;;3.53;3.20;;;;;;;;;;5051352;28;20405;-55
2023/07/11 06:55:51;;;;;;;3.37;3.00;;;;;;;;;;5051273;28;20445;-54
2023/07/11 06:58:17;;;;;;;4.27;3.90;;;;;;;;;;5051066;28;20433;-54
2023/07/11 07:00:43;;;;;;;4.40;3.10;;;;;;;;;;5050880;28;20457;-54
2023/07/11 07:03:29;;;;;;;3.20;2.97;;;;;;;;;;5051247;28;20409;-55
2023/07/11 07:05:57;;;;;;;3.30;3.10;;;;;;;;;;5044357;28;20415;-53
2023/07/11 07:08:23;;;;;;;3.40;3.00;;;;;;;;;;5051011;28;20944;-54
2023/07/11 07:10:50;;;;;;;3.17;2.87;;;;;;;;;;5050862;28;20433;-54
2023/07/11 07:13:18;;;;;;;6.00;3.70;;;;;;;;;;5051108;28;20774;-53
2023/07/11 07:15:47;;;;;;;3.30;3.00;;;;;;;;;;5050923;28;20435;-55
2023/07/11 07:18:14;;;;;;;3.80;3.50;;;;;;;;;;5051144;28;20790;-54
2023/07/11 07:20:42;;;;;;;3.40;3.10;;;;;;;;;;5050822;28;20536;-55
2023/07/11 07:23:09;;;;;;;4.50;3.43;;;;;;;;;;5050976;28;20490;-55
2023/07/11 07:25:36;;;;;;;3.50;3.17;;;;;;;;;;5051144;28;20409;-55
2023/07/11 07:28:04;;;;;;;4.00;3.03;;;;;;;;;;5050913;28;20458;-55
2023/07/11 07:30:31;;;;;;;9.20;3.23;;;;;;;;;;5050666;28;20495;-55
2023/07/11 07:32:58;;;;;;;3.60;3.23;;;;;;;;;;5051255;28;20410;-52
2023/07/11 07:35:24;;;;;;;3.43;3.20;;;;;;;;;;5050747;28;20808;-53
2023/07/11 07:37:50;;;;;;;4.63;3.20;;;;;;;;;;5050650;28;20938;-53
2023/07/11 07:40:16;;;;;;;5.10;3.20;;;;;;;;;;5050766;28;20575;-52
2023/07/11 07:42:42;;;;;;;7.23;3.60;;;;;;;;;;5050201;28;20903;-53
2023/07/11 07:45:10;;;;;;;6.80;3.27;;;;;;;;;;5050082;28;20445;-55
2023/07/11 07:47:36;;;;;;;5.60;3.10;;;;;;;;;;5050674;28;20426;-55
2023/07/11 07:50:03;;;;;;;2.93;2.63;;;;;;;;;;5050591;28;20414;-55
2023/07/11 07:52:30;;;;;;;4.20;3.20;;;;;;;;;;5052759;28;20906;-54
2023/07/11 07:54:56;;;;;;;3.87;3.57;;;;;;;;;;5054287;28;20470;-55
2023/07/11 07:57:22;;;;;;;4.83;3.50;;;;;;;;;;5054452;28;20495;-53
2023/07/11 07:59:49;;;;;;;8.00;3.20;;;;;;;;;;5053067;28;20494;-55
2023/07/11 08:02:15;;;;;;;4.70;2.80;;;;;;;;;;5054253;28;20490;-54
2023/07/11 08:04:41;;;;;;;3.07;2.73;;;;;;;;;;5054287;28;20901;-55
2023/07/11 08:07:07;;;;;;;5.07;3.07;;;;;;;;;;5054108;28;20914;-54
2023/07/11 08:09:33;;;;;;;3.30;3.00;;;;;;;;;;5054251;28;20576;-53
2023/07/11 08:12:06;;;;;;;3.57;3.27;;;;;;;;;;5055452;28;20430;-53
2023/07/11 08:14:39;;;;;;;3.40;3.10;;;;;;;;;;5053815;28;20475;-54
2023/07/11 08:17:06;;;;;;;4.37;3.17;;;;;;;;;;5051304;28;20421;-53
2023/07/11 08:19:32;;;;;;;5.40;2.80;;;;;;;;;;5050092;28;20452;-53
2023/07/11 08:21:58;;;;;;;3.33;3.00;;;;;;;;;;5053600;28;20919;-54
2023/07/11 08:24:24;;;;;;;3.17;2.50;;;;;;;;;;5053657;28;20500;-55
2023/07/11 08:26:51;;;;;;;3.47;3.17;;;;;;;;;;5053746;28;20471;-55
2023/07/11 08:29:17;;;;;;;4.10;3.10;;;;;;;;;;5063044;28;20801;-55
2023/07/11 08:31:44;;;;;;;4.90;2.87;;;;;;;;;;5053389;28;20903;-55
2023/07/11 08:34:11;;;;;;;5.70;3.63;;;;;;;;;;5053838;28;20413;-55
2023/07/11 08:36:38;;;;;;;4.03;3.07;;;;;;;;;;5053917;28;20412;-54
2023/07/11 08:39:04;;;;;;;2.63;2.43;;;;;;;;;;5073394;28;20976;-55
2023/07/11 08:41:41;;;;;;;2.90;2.03;;;;;;;;;;5055555;28;20459;-54
2023/07/11 08:44:12;;;;;;;6.30;2.70;;;;;;;;;;5069240;28;20423;-55
2023/07/11 08:46:46;;;;;;;3.40;2.20;;;;;;;;;;5059568;28;20435;-54
2023/07/11 08:49:16;;;;;;;2.63;2.43;;;;;;;;;;5053234;28;20448;-50
2023/07/11 08:51:45;;;;;;;2.57;2.30;;;;;;;;;;5051699;28;20906;-55
2023/07/11 08:54:17;;;;;;;2.50;2.17;;;;;;;;;;5053009;28;20515;-53
2023/07/11 08:56:47;;;;;;;2.93;2.60;;;;;;;;;;5045670;28;20471;-53
2023/07/11 08:59:28;;;;;;;2.97;2.67;;;;;;;;;;5052621;28;20833;-53
2023/07/11 09:02:02;;;;;;;4.20;3.00;;;;;;;;;;5052880;28;20401;-55
2023/07/11 09:04:29;;;;;;;9.97;3.00;;;;;;;;;;5051893;28;20440;-55
2023/07/11 09:06:57;;;;;;;7.63;2.70;;;;;;;;;;5052941;28;20881;-56
2023/07/11 09:09:25;;;;;;;6.83;2.70;;;;;;;;;;5052975;28;20792;-54
2023/07/11 09:11:51;;;;;;;4.33;2.90;;;;;;;;;;5053032;28;20419;-55
2023/07/11 09:14:27;;;;;;;4.10;2.90;;;;;;;;;;5052896;28;20406;-54
2023/07/11 09:17:08;;;;;;;5.60;2.90;;;;;;;;;;5052420;28;20257;-54
2023/07/11 09:19:44;;;;;;;3.47;2.57;;;;;;;;;;5052579;28;20984;-53
2023/07/11 09:22:18;;;;;;;5.30;2.93;;;;;;;;;;5052789;28;20408;-55
2023/07/11 09:24:53;;;;;;;3.53;2.27;;;;;;;;;;5045484;28;20406;-55
2023/07/11 09:27:24;;;;;;;8.03;3.30;;;;;;;;;;5052380;28;20436;-54
2023/07/11 09:29:50;;;;;;;6.60;2.87;;;;;;;;;;5052186;28;20785;-52
2023/07/11 09:32:17;;;;;;;2.40;2.20;;;;;;;;;;5052321;28;20455;-53
2023/07/11 09:34:48;;;;;;;4.10;2.60;;;;;;;;;;5052470;28;20797;-56
2023/07/11 09:37:33;;;;;;;2.83;2.63;;;;;;;;;;5052276;28;20420;-55
2023/07/11 09:40:14;;;;;;;7.00;2.60;;;;;;;;;;5051955;28;20460;-52
2023/07/11 09:42:58;;;;;;;5.67;2.67;;;;;;;;;;5045794;28;20405;-54
2023/07/11 09:45:29;;;;;;;3.90;2.30;;;;;;;;;;5047692;28;20413;-54
2023/07/11 09:47:58;;;;;;;6.77;2.53;;;;;;;;;;5051970;28;20460;-55
2023/07/11 09:50:32;;;;;;;4.70;2.87;;;;;;;;;;5051889;28;20423;-54
2023/07/11 09:53:01;;;;;;;3.83;2.27;;;;;;;;;;5051841;28;20409;-54
2023/07/11 09:55:34;;;;;;;5.63;2.50;;;;;;;;;;5051949;28;20476;-55
2023/07/11 09:58:00;;;;;;;2.80;2.30;;;;;;;;;;5051991;28;20421;-55
2023/07/11 10:00:26;;;;;;;4.10;2.70;;;;;;;;;;5051649;28;20455;-54
2023/07/11 10:02:53;;;;;;;6.63;2.77;;;;;;;;;;5051963;28;20895;-55
2023/07/11 10:05:22;;;;;;;4.47;2.30;;;;;;;;;;5051761;28;20417;-54
2023/07/11 10:07:58;;;;;;;4.33;2.77;;;;;;;;;;5052143;28;20437;-49
2023/07/11 10:10:24;;;;;;;3.80;2.50;;;;;;;;;;5051495;28;20448;-49
2023/07/11 10:12:50;;;;;;;3.67;2.70;;;;;;;;;;5051908;28;20467;-49
2023/07/11 10:15:18;;;;;;;2.50;2.30;;;;;;;;;;5051241;28;20440;-49
2023/07/11 10:17:45;;;;;;;3.00;2.43;;;;;;;;;;5051162;28;20425;-53
2023/07/11 10:20:17;;;;;;;11.13;4.80;;;;;;;;;;5053371;28;20464;-49
2023/07/11 10:22:44;;;;;;;7.60;2.93;;;;;;;;;;5051518;28;20405;-50
2023/07/11 10:25:22;;;;;;;4.57;2.73;;;;;;;;;;5051839;28;20405;-50
2023/07/11 10:27:54;;;;;;;4.27;2.63;;;;;;;;;;5047847;28;20512;-50
2023/07/11 10:30:22;;;;;;;4.83;3.20;;;;;;;;;;5037183;28;20406;-50
2023/07/11 10:32:56;;;;;;;5.67;2.90;;;;;;;;;;5042169;28;20448;-49
2023/07/11 10:35:24;;;;;;;4.23;2.60;;;;;;;;;;5045780;28;20429;-49
2023/07/11 10:37:59;;;;;;;7.97;2.90;;;;;;;;;;5045461;28;20785;-52
2023/07/11 10:40:36;;;;;;;2.90;2.70;;;;;;;;;;5051073;28;20464;-50
2023/07/11 10:43:13;;;;;;;5.20;2.50;;;;;;;;;;5046087;28;20764;-52
2023/07/11 10:45:41;;;;;;;4.03;2.80;;;;;;;;;;5047785;28;20475;-49
2023/07/11 10:48:23;;;;;;;4.03;2.60;;;;;;;;;;5039594;28;20500;-50
2023/07/11 10:50:55;;;;;;;4.03;2.50;;;;;;;;;;5031218;28;20850;-53
2023/07/11 10:53:24;;;;;;;6.33;2.50;;;;;;;;;;5049207;28;20426;-50
2023/07/11 10:55:54;;;;;;;5.77;2.40;;;;;;;;;;5053839;28;20429;-52
2023/07/11 10:58:22;;;;;;;5.77;2.47;;;;;;;;;;5052158;28;20712;-50
2023/07/11 11:00:49;;;;;;;4.90;2.80;;;;;;;;;;5051474;28;20548;-50
2023/07/11 11:03:19;;;;;;;9.50;3.23;;;;;;;;;;5051101;28;20475;-49
2023/07/11 11:06:00;;;;;;;4.97;3.30;;;;;;;;;;5050005;28;20801;-49
2023/07/11 11:08:33;;;;;;;5.23;3.10;;;;;;;;;;5050948;28;20486;-52
2023/07/11 11:11:06;;;;;;;5.00;2.70;;;;;;;;;;5051427;28;20413;-49
2023/07/11 11:13:54;;;;;;;4.80;3.00;;;;;;;;;;5053652;28;20424;-50
2023/07/11 11:16:30;;;;;;;9.97;3.27;;;;;;;;;;5051044;28;20394;-50
2023/07/11 11:19:05;;;;;;;7.20;3.50;;;;;;;;;;5053909;28;21029;-49
2023/07/11 11:21:39;;;;;;;3.67;2.67;;;;;;;;;;5049013;28;20398;-50
2023/07/11 11:24:25;;;;;;;4.63;2.87;;;;;;;;;;5048573;28;20463;-53
2023/07/11 11:27:11;;;;;;;4.97;3.13;;;;;;;;;;5050172;28;20429;-50
2023/07/11 11:29:40;;;;;;;5.23;2.70;;;;;;;;;;5053151;28;20454;-60
2023/07/11 11:32:10;;;;;;;6.40;3.63;;;;;;;;;;5051644;28;21109;-49
2023/07/11 11:34:45;;;;;;;11.20;3.00;;;;;;;;;;5051866;28;20421;-50
2023/07/11 11:37:18;;;;;;;9.03;2.90;;;;;;;;;;5054726;28;20416;-50
2023/07/11 11:39:44;;;;;;;5.50;2.70;;;;;;;;;;5054222;28;20461;-50
2023/07/11 11:42:20;;;;;;;6.23;2.77;;;;;;;;;;5054671;28;20767;-50
2023/07/11 11:44:48;;;;;;;3.40;3.10;;;;;;;;;;5053361;28;20429;-50
2023/07/11 11:47:14;;;;;;;4.50;2.90;;;;;;;;;;5036167;28;20417;-49
2023/07/11 11:49:42;;;;;;;6.10;2.50;;;;;;;;;;5051167;28;20429;-50
2023/07/11 11:52:09;;;;;;;5.80;3.00;;;;;;;;;;5053750;28;20417;-52
2023/07/11 11:54:42;;;;;;;4.33;2.90;;;;;;;;;;5052263;28;20421;-55
2023/07/11 11:57:11;;;;;;;5.57;2.97;;;;;;;;;;5054062;28;20475;-54
2023/07/11 11:59:38;;;;;;;3.30;2.60;;;;;;;;;;5054355;28;20468;-51
2023/07/11 12:02:10;;;;;;;4.00;2.87;;;;;;;;;;5054320;28;20426;-54
2023/07/11 12:04:47;;;;;;;3.87;2.97;;;;;;;;;;5054119;28;20471;-54
2023/07/11 12:07:13;;;;;;;4.73;2.97;;;;;;;;;;5054045;28;20432;-52
2023/07/11 12:09:45;;;;;;;2.93;2.60;;;;;;;;;;5053974;28;20406;-53
2023/07/11 12:12:23;;;;;;;3.17;2.87;;;;;;;;;;5054115;28;20899;-54
2023/07/11 12:14:52;;;;;;;3.30;3.00;;;;;;;;;;5053964;28;20400;-52
2023/07/11 12:17:33;;;;;;;3.60;2.80;;;;;;;;;;5053679;28;20405;-53
2023/07/11 12:20:03;;;;;;;3.70;2.87;;;;;;;;;;5053605;28;20672;-54
2023/07/11 12:22:38;;;;;;;4.77;3.37;;;;;;;;;;5053690;28;20467;-52
2023/07/11 12:25:07;;;;;;;3.00;2.70;;;;;;;;;;5053712;28;20409;-52
2023/07/11 12:27:33;;;;;;;6.77;2.90;;;;;;;;;;5053505;28;20425;-52
2023/07/11 12:30:14;;;;;;;8.47;3.00;;;;;;;;;;5053456;28;20417;-54
2023/07/11 12:32:41;;;;;;;6.50;3.40;;;;;;;;;;5053837;28;20185;-52
2023/07/11 12:35:07;;;;;;;3.80;3.10;;;;;;;;;;5053616;28;20421;-52
2023/07/11 12:37:53;;;;;;;10.93;3.13;;;;;;;;;;5053020;28;20495;-51
2023/07/11 12:40:37;;;;;;;7.23;2.97;;;;;;;;;;5053027;28;20472;-52
2023/07/11 12:43:23;;;;;;;5.20;3.33;;;;;;;;;;5053583;28;20902;-53
2023/07/11 12:45:51;;;;;;;3.50;3.10;;;;;;;;;;5045105;28;20402;-51
2023/07/11 12:48:19;;;;;;;3.33;3.03;;;;;;;;;;5053077;28;20990;-53
2023/07/11 12:50:47;;;;;;;4.53;2.90;;;;;;;;;;5053301;28;20798;-54
2023/07/11 12:53:14;;;;;;;4.17;3.00;;;;;;;;;;5053195;28;20768;-52
2023/07/11 12:55:45;;;;;;;6.43;3.00;;;;;;;;;;5053238;28;20853;-52
2023/07/11 12:58:17;;;;;;;5.63;3.13;;;;;;;;;;5053158;28;20445;-52
2023/07/11 13:00:45;;;;;;;4.43;3.30;;;;;;;;;;5052911;28;20469;-52
2023/07/11 13:03:21;;;;;;;3.20;3.00;;;;;;;;;;5052929;28;20961;-52
2023/07/11 13:05:50;;;;;;;6.33;3.10;;;;;;;;;;5045962;28;20408;-52
2023/07/11 13:08:16;;;;;;;3.77;2.40;;;;;;;;;;5052751;28;20468;-52
2023/07/11 13:10:48;;;;;;;3.70;3.20;;;;;;;;;;5052673;28;20413;-52
2023/07/11 13:13:15;;;;;;;3.23;2.93;;;;;;;;;;5052819;28;20409;-52
2023/07/11 13:15:42;;;;;;;3.10;2.90;;;;;;;;;;5052705;28;20413;-52
2023/07/11 13:18:25;;;;;;;5.47;3.93;;;;;;;;;;5052719;28;20434;-52
2023/07/11 13:20:51;;;;;;;4.60;3.30;;;;;;;;;;5046173;28;20982;-54
2023/07/11 13:23:18;;;;;;;8.37;3.70;;;;;;;;;;5052730;28;20784;-53
2023/07/11 13:25:44;;;;;;;5.93;3.57;;;;;;;;;;5052655;28;20412;-52
2023/07/11 13:28:22;;;;;;;3.60;3.30;;;;;;;;;;5052301;28;20420;-54
2023/07/11 13:30:59;;;;;;;3.40;3.10;;;;;;;;;;5045654;28;20170;-54
2023/07/11 13:33:35;;;;;;;4.30;3.60;;;;;;;;;;5051402;28;20420;-53
2023/07/11 13:36:21;;;;;;;5.83;3.60;;;;;;;;;;5032577;28;20409;-54
2023/07/11 13:38:50;;;;;;;3.50;3.20;;;;;;;;;;5032391;28;20815;-54
2023/07/11 13:41:17;;;;;;;4.27;3.93;;;;;;;;;;5050014;28;20492;-52
2023/07/11 13:43:46;;;;;;;3.87;3.47;;;;;;;;;;5052374;28;20421;-52
2023/07/11 13:46:15;;;;;;;7.53;3.80;;;;;;;;;;5053406;28;20466;-53
2023/07/11 13:48:49;;;;;;;3.37;3.10;;;;;;;;;;5051535;28;20433;-52
2023/07/11 13:51:18;;;;;;;4.30;3.90;;;;;;;;;;5051806;28;20915;-51
2023/07/11 13:53:46;;;;;;;3.40;3.10;;;;;;;;;;5052306;28;20504;-54
2023/07/11 13:56:12;;;;;;;6.10;4.30;;;;;;;;;;5052061;28;20431;-54
2023/07/11 13:58:38;;;;;;;5.10;3.33;;;;;;;;;;5051968;28;20929;-52
2023/07/11 14:01:10;;;;;;;3.80;3.50;;;;;;;;;;5052175;28;20281;-51
2023/07/11 14:03:36;;;;;;;4.63;3.90;;;;;;;;;;5051689;28;20918;-52
2023/07/11 14:06:03;;;;;;;3.87;3.60;;;;;;;;;;5051708;28;20914;-53
2023/07/11 14:08:30;;;;;;;4.27;3.87;;;;;;;;;;5051825;28;20435;-53
2023/07/11 14:10:56;;;;;;;5.30;3.60;;;;;;;;;;5051633;28;20393;-53
2023/07/11 14:13:23;;;;;;;4.50;4.10;;;;;;;;;;5051711;28;20417;-52
2023/07/11 14:15:49;;;;;;;5.60;4.13;;;;;;;;;;5050186;28;20425;-52
2023/07/11 14:18:15;;;;;;;6.53;3.73;;;;;;;;;;5048505;28;20523;-52
2023/07/11 14:20:41;;;;;;;4.67;3.67;;;;;;;;;;5051368;28;20930;-51
2023/07/11 14:23:19;;;;;;;4.93;4.07;;;;;;;;;;5051616;28;20413;-51
2023/07/11 14:25:46;;;;;;;3.90;3.50;;;;;;;;;;5046687;28;20636;-52
2023/07/11 14:28:32;;;;;;;4.00;3.30;;;;;;;;;;5051656;28;20431;-52
2023/07/11 14:31:00;;;;;;;5.47;3.33;;;;;;;;;;5044026;28;20492;-53
2023/07/11 14:33:30;;;;;;;3.90;3.50;;;;;;;;;;5051293;28;20421;-51
2023/07/11 14:35:56;;;;;;;7.77;3.47;;;;;;;;;;5051456;28;20412;-54
2023/07/11 14:38:22;;;;;;;3.77;2.97;;;;;;;;;;5051289;28;20433;-52
2023/07/11 14:40:48;;;;;;;4.30;3.47;;;;;;;;;;5051107;28;20223;-52
2023/07/11 14:43:15;;;;;;;7.30;3.30;;;;;;;;;;5051280;28;20827;-53
2023/07/11 14:45:41;;;;;;;6.87;4.10;;;;;;;;;;5051537;28;20449;-53
2023/07/11 14:48:18;;;;;;;3.67;3.37;;;;;;;;;;5051181;28;20493;-53
2023/07/11 14:50:47;;;;;;;4.83;3.80;;;;;;;;;;5044294;28;20790;-52